createdAt,value
2023-03-16T00:02:18.237Z,10.95
2023-03-16T00:04:47.400Z,10.75
2023-03-16T00:07:22.888Z,12.23
2023-03-16T00:09:49.520Z,10.95
2023-03-16T00:12:18.160Z,11.35
2023-03-16T00:14:46.722Z,11.05
2023-03-16T00:17:19.030Z,12.02
2023-03-16T00:20:07.678Z,12.98
2023-03-16T00:22:34.513Z,13.32
2023-03-16T00:25:01.766Z,11.07
2023-03-16T00:27:29.501Z,13.27
2023-03-16T00:29:56.591Z,11.48
2023-03-16T00:32:29.041Z,14.43
2023-03-16T00:34:56.194Z,13.30
2023-03-16T00:37:24.358Z,12.35
2023-03-16T00:39:51.911Z,12.48
2023-03-16T00:42:19.915Z,11.77
2023-03-16T00:44:46.744Z,11.68
2023-03-16T00:47:14.470Z,12.27
2023-03-16T00:49:43.046Z,11.63
2023-03-16T00:52:14.748Z,10.52
2023-03-16T00:54:43.431Z,10.60
2023-03-16T00:57:14.682Z,10.32
2023-03-16T00:59:42.193Z,10.73
2023-03-16T01:02:09.634Z,10.68
2023-03-16T01:04:37.026Z,10.38
2023-03-16T01:07:04.881Z,10.05
2023-03-16T01:09:36.733Z,11.93
2023-03-16T01:12:08.153Z,10.77
2023-03-16T01:14:35.726Z,11.18
2023-03-16T01:17:06.464Z,10.85
2023-03-16T01:19:34.098Z,11.55
2023-03-16T01:22:00.645Z,11.02
2023-03-16T01:24:27.169Z,11.07
2023-03-16T01:26:54.271Z,11.57
2023-03-16T01:29:21.142Z,11.20
2023-03-16T01:31:50.043Z,11.68
2023-03-16T01:34:18.753Z,10.98
2023-03-16T01:36:48.387Z,12.18
2023-03-16T01:39:16.294Z,11.73
2023-03-16T01:41:46.985Z,11.98
2023-03-16T01:44:20.045Z,12.43
2023-03-16T01:46:46.667Z,10.25
2023-03-16T01:49:20.331Z,10.50
2023-03-16T01:51:53.194Z,11.25
2023-03-16T01:54:28.011Z,10.98
2023-03-16T01:57:06.561Z,10.85
2023-03-16T02:00:09.908Z,10.68
2023-03-16T02:02:51.367Z,10.57
2023-03-16T02:05:54.591Z,9.95
2023-03-16T02:08:24.902Z,10.45
2023-03-16T02:10:54.557Z,9.27
2023-03-16T02:13:24.792Z,10.67
2023-03-16T02:15:53.534Z,9.85
2023-03-16T02:18:22.902Z,10.80
2023-03-16T02:20:59.049Z,8.88
2023-03-16T02:23:25.747Z,9.43
2023-03-16T02:26:13.653Z,9.23
2023-03-16T02:28:57.271Z,10.73
2023-03-16T02:31:24.068Z,10.27
2023-03-16T02:33:52.340Z,9.52
2023-03-16T02:36:20.484Z,10.23
2023-03-16T02:38:47.531Z,11.10
2023-03-16T02:41:21.235Z,10.57
2023-03-16T02:44:15.333Z,10.38
2023-03-16T02:46:46.478Z,11.00
2023-03-16T02:49:21.113Z,12.98
2023-03-16T02:51:48.089Z,13.65
2023-03-16T02:54:14.602Z,11.93
2023-03-16T02:56:41.967Z,12.90
2023-03-16T02:59:10.458Z,11.93
2023-03-16T03:01:37.041Z,12.38
2023-03-16T03:04:05.604Z,12.25
2023-03-16T03:06:32.345Z,13.13
2023-03-16T03:08:59.518Z,12.80
2023-03-16T03:11:26.396Z,14.05
2023-03-16T03:13:53.958Z,14.10
2023-03-16T03:16:23.382Z,12.57
2023-03-16T03:18:52.656Z,13.63
2023-03-16T03:21:19.725Z,13.57
2023-03-16T03:23:46.618Z,12.23
2023-03-16T03:26:16.999Z,15.93
2023-03-16T03:28:44.804Z,13.30
2023-03-16T03:31:15.110Z,13.52
2023-03-16T03:33:41.829Z,15.10
2023-03-16T03:36:08.491Z,14.18
2023-03-16T03:38:37.692Z,16.33
2023-03-16T03:41:09.721Z,15.13
2023-03-16T03:43:38.297Z,14.50
2023-03-16T03:46:06.970Z,15.63
2023-03-16T03:48:34.378Z,15.30
2023-03-16T03:51:01.217Z,15.82
2023-03-16T03:53:46.376Z,13.52
2023-03-16T03:56:35.940Z,14.02
2023-03-16T03:59:02.907Z,13.15
2023-03-16T04:01:49.472Z,12.35
2023-03-16T04:04:16.361Z,11.88
2023-03-16T04:06:42.811Z,13.35
2023-03-16T04:09:09.928Z,14.32
2023-03-16T04:11:36.475Z,12.35
2023-03-16T04:14:03.858Z,13.77
2023-03-16T04:16:30.880Z,11.90
2023-03-16T04:18:58.408Z,11.60
2023-03-16T04:21:25.410Z,11.50
2023-03-16T04:23:54.946Z,11.30
2023-03-16T04:26:29.404Z,12.05
2023-03-16T04:28:55.950Z,10.90
2023-03-16T04:31:22.577Z,11.10
2023-03-16T04:33:49.619Z,13.43
2023-03-16T04:36:16.536Z,14.45
2023-03-16T04:38:43.847Z,11.95
2023-03-16T04:41:11.479Z,12.25
2023-03-16T04:43:44.925Z,12.35
2023-03-16T04:46:20.324Z,12.45
2023-03-16T04:48:46.864Z,11.02
2023-03-16T04:51:13.459Z,11.57
2023-03-16T04:53:46.776Z,11.02
2023-03-16T04:56:21.280Z,12.18
2023-03-16T04:58:56.804Z,13.68
2023-03-16T05:01:25.071Z,10.93
2023-03-16T05:03:56.146Z,11.55
2023-03-16T05:06:23.632Z,12.45
2023-03-16T05:08:50.170Z,11.63
2023-03-16T05:11:16.952Z,10.52
2023-03-16T05:13:53.090Z,11.48
2023-03-16T05:16:20.059Z,10.32
2023-03-16T05:18:46.629Z,12.77
2023-03-16T05:21:13.568Z,11.50
2023-03-16T05:24:02.221Z,12.52
2023-03-16T05:26:28.728Z,10.45
2023-03-16T05:28:55.900Z,10.90
2023-03-16T05:31:26.701Z,11.50
2023-03-16T05:33:57.456Z,11.05
2023-03-16T05:36:24.759Z,11.52
2023-03-16T05:38:54.840Z,11.93
2023-03-16T05:41:29.146Z,11.18
2023-03-16T05:44:30.943Z,11.20
2023-03-16T05:47:13.664Z,11.85
2023-03-16T05:49:44.132Z,11.10
2023-03-16T05:52:20.355Z,11.65
2023-03-16T05:54:47.008Z,12.98
2023-03-16T05:57:13.880Z,12.80
2023-03-16T05:59:43.823Z,12.75
2023-03-16T06:02:11.553Z,12.27
2023-03-16T06:04:38.226Z,12.93
2023-03-16T06:07:05.098Z,15.35
2023-03-16T06:09:31.803Z,16.80
2023-03-16T06:11:58.625Z,13.60
2023-03-16T06:14:25.372Z,16.50
2023-03-16T06:16:54.284Z,16.42
2023-03-16T06:19:21.666Z,22.58
2023-03-16T06:21:52.692Z,13.50
2023-03-16T06:24:19.169Z,12.27
2023-03-16T06:26:45.727Z,16.52
2023-03-16T06:29:13.174Z,17.50
2023-03-16T06:31:41.034Z,14.55
2023-03-16T06:34:07.899Z,13.40
2023-03-16T06:36:34.473Z,13.18
2023-03-16T06:39:04.373Z,14.95
2023-03-16T06:41:42.725Z,15.77
2023-03-16T06:44:11.520Z,13.85
2023-03-16T06:46:43.404Z,14.27
2023-03-16T06:49:11.019Z,14.55
2023-03-16T06:51:37.768Z,14.60
2023-03-16T06:54:04.289Z,14.40
2023-03-16T06:56:33.014Z,15.35
2023-03-16T06:58:59.676Z,13.80
2023-03-16T07:01:26.720Z,14.00
2023-03-16T07:03:54.586Z,14.80
2023-03-16T07:06:26.302Z,14.70
2023-03-16T07:08:54.008Z,15.05
2023-03-16T07:11:21.637Z,15.50
2023-03-16T07:13:48.143Z,16.00
2023-03-16T07:16:16.103Z,15.18
2023-03-16T07:18:44.409Z,15.10
2023-03-16T07:21:14.300Z,15.90
2023-03-16T07:23:40.978Z,13.70
2023-03-16T07:26:08.980Z,13.23
2023-03-16T07:28:41.058Z,13.25
2023-03-16T07:31:09.495Z,11.80
2023-03-16T07:33:38.966Z,11.52
2023-03-16T07:36:10.706Z,11.15
2023-03-16T07:38:42.629Z,10.90
2023-03-16T07:41:10.111Z,10.63
2023-03-16T07:43:37.487Z,9.93
2023-03-16T07:46:04.213Z,11.32
2023-03-16T07:48:32.472Z,9.82
2023-03-16T07:51:02.444Z,9.18
2023-03-16T07:53:30.337Z,9.00
2023-03-16T07:56:13.418Z,9.38
2023-03-16T07:58:43.900Z,8.48
2023-03-16T08:01:11.767Z,8.10
2023-03-16T08:03:39.099Z,7.68
2023-03-16T08:06:06.869Z,8.23
2023-03-16T08:08:33.794Z,8.18
2023-03-16T08:11:00.851Z,8.00
2023-03-16T08:13:38.535Z,8.70
2023-03-16T08:16:10.375Z,7.43
2023-03-16T08:18:39.465Z,7.45
2023-03-16T08:21:06.681Z,7.28
2023-03-16T08:23:33.930Z,7.55
2023-03-16T08:26:01.356Z,7.22
2023-03-16T08:33:45.433Z,7.10
2023-03-16T09:03:46.321Z,5.45
2023-03-16T09:25:59.311Z,5.97
2023-03-16T09:28:27.701Z,5.32
2023-03-16T09:30:55.458Z,7.35
2023-03-16T09:33:24.357Z,5.93
2023-03-16T09:35:52.017Z,4.75
2023-03-16T09:38:19.305Z,5.95
2023-03-16T09:40:50.235Z,5.07
2023-03-16T09:43:44.441Z,4.57
2023-03-16T09:46:35.828Z,4.30
2023-03-16T09:49:03.727Z,4.85
2023-03-16T09:51:44.501Z,4.05
2023-03-16T09:54:50.777Z,3.42
2023-03-16T09:57:30.546Z,3.70
2023-03-16T10:00:07.945Z,4.38
2023-03-16T10:02:45.523Z,12.05
2023-03-16T10:05:14.095Z,3.10
2023-03-16T10:08:08.978Z,3.08
2023-03-16T10:11:11.363Z,7.85
2023-03-16T10:13:47.657Z,6.35
2023-03-16T10:16:21.221Z,4.93
2023-03-16T10:19:01.315Z,4.80
2023-03-16T10:21:31.294Z,4.43
2023-03-16T10:24:02.244Z,3.38
2023-03-16T10:26:44.258Z,4.30
2023-03-16T10:29:14.638Z,3.05
2023-03-16T10:31:42.862Z,3.13
2023-03-16T10:34:10.689Z,2.97
2023-03-16T10:36:41.981Z,2.72
2023-03-16T10:39:12.079Z,2.50
2023-03-16T10:41:41.779Z,2.67
2023-03-16T10:44:21.717Z,2.42
2023-03-16T10:46:54.042Z,3.25
2023-03-16T10:49:25.512Z,2.55
2023-03-16T10:51:54.786Z,2.30
2023-03-16T10:54:30.763Z,2.47
2023-03-16T10:56:58.515Z,2.10
2023-03-16T10:59:25.116Z,2.33
2023-03-16T11:01:52.260Z,2.30
2023-03-16T11:04:19.343Z,2.30
2023-03-16T11:07:09.444Z,2.03
2023-03-16T11:09:37.155Z,2.05
2023-03-16T11:12:25.028Z,2.05
2023-03-16T11:14:52.105Z,2.15
2023-03-16T11:17:34.766Z,2.00
2023-03-16T11:20:17.515Z,1.70
2023-03-16T11:22:47.190Z,1.85
2023-03-16T11:25:17.149Z,2.00
2023-03-16T11:27:52.918Z,1.77
2023-03-16T11:30:29.225Z,2.03
2023-03-16T11:32:56.032Z,1.60
2023-03-16T11:35:34.733Z,1.63
2023-03-16T11:38:20.084Z,1.50
2023-03-16T11:41:00.291Z,1.60
2023-03-16T11:43:53.099Z,1.60
2023-03-16T11:46:36.612Z,1.58
2023-03-16T11:49:08.996Z,1.67
2023-03-16T11:51:47.927Z,1.73
2023-03-16T11:54:40.244Z,1.45
2023-03-16T11:57:33.580Z,1.60
2023-03-16T12:00:15.137Z,1.60
2023-03-16T12:03:09.314Z,1.30
2023-03-16T12:05:48.581Z,1.00
2023-03-16T12:08:45.034Z,1.42
2023-03-16T12:11:24.141Z,1.30
2023-03-16T12:14:00.363Z,1.50
2023-03-16T12:16:48.334Z,1.30
2023-03-16T12:19:38.339Z,1.30
2023-03-16T12:22:13.683Z,1.88
2023-03-16T12:24:44.014Z,1.30
2023-03-16T12:27:15.965Z,1.63
2023-03-16T12:29:55.748Z,1.83
2023-03-16T12:32:29.721Z,1.55
2023-03-16T12:35:03.463Z,1.08
2023-03-16T12:37:43.080Z,1.30
2023-03-16T12:40:27.006Z,1.33
2023-03-16T12:43:30.590Z,1.55
2023-03-16T12:46:08.382Z,1.50
2023-03-16T12:48:44.746Z,1.15
2023-03-16T12:51:11.272Z,1.23
2023-03-16T12:53:45.217Z,1.20
2023-03-16T12:56:17.748Z,1.92
2023-03-16T12:58:48.826Z,2.08
2023-03-16T13:01:18.570Z,2.15
2023-03-16T13:03:50.583Z,1.98
2023-03-16T13:06:20.601Z,2.15
2023-03-16T13:08:56.855Z,2.05
2023-03-16T13:11:24.207Z,1.70
2023-03-16T13:13:59.789Z,1.58
2023-03-16T13:16:33.122Z,1.40
2023-03-16T13:18:59.879Z,1.90
2023-03-16T13:21:40.991Z,1.50
2023-03-16T13:24:28.876Z,1.75
2023-03-16T13:27:05.588Z,2.17
2023-03-16T13:29:33.014Z,1.88
2023-03-16T13:32:07.568Z,1.77
2023-03-16T13:34:48.698Z,2.10
2023-03-16T13:37:18.385Z,1.95
2023-03-16T13:39:53.967Z,1.48
2023-03-16T13:42:23.667Z,1.60
2023-03-16T13:44:55.830Z,1.88
2023-03-16T13:47:22.482Z,1.67
2023-03-16T13:49:54.383Z,1.90
2023-03-16T13:52:26.047Z,1.98
2023-03-16T13:57:26.866Z,1.70
2023-03-16T14:00:02.676Z,1.77
2023-03-16T14:02:36.302Z,1.10
2023-03-16T14:05:11.799Z,1.40
2023-03-16T14:07:39.348Z,1.30
2023-03-16T14:10:09.306Z,1.58
2023-03-16T14:12:37.767Z,1.42
2023-03-16T14:15:07.343Z,1.80
2023-03-16T14:17:33.890Z,1.40
2023-03-16T14:20:00.946Z,1.48
2023-03-16T14:22:34.388Z,1.52
2023-03-16T14:25:04.671Z,1.40
2023-03-16T14:27:43.629Z,1.77
2023-03-16T14:30:26.863Z,1.25
2023-03-16T14:32:57.049Z,1.30
2023-03-16T14:35:31.871Z,1.17
2023-03-16T14:38:40.500Z,1.10
2023-03-16T14:41:26.328Z,1.27
2023-03-16T14:43:59.048Z,1.05
2023-03-16T14:46:29.783Z,1.10
2023-03-16T14:49:08.748Z,1.40
2023-03-16T14:51:38.080Z,2.00
2023-03-16T14:54:18.952Z,1.20
2023-03-16T14:56:50.773Z,1.37
2023-03-16T14:59:17.810Z,1.13
2023-03-16T15:01:45.783Z,1.38
2023-03-16T15:04:15.190Z,1.10
2023-03-16T15:06:41.970Z,1.30
2023-03-16T15:09:27.993Z,1.50
2023-03-16T15:11:55.588Z,1.20
2023-03-16T15:15:00.277Z,1.20
2023-03-16T15:17:27.077Z,1.40
2023-03-16T15:19:53.837Z,1.38
2023-03-16T15:22:28.103Z,1.10
2023-03-16T15:24:55.158Z,1.20
2023-03-16T15:27:26.423Z,1.80
2023-03-16T15:29:53.005Z,1.30
2023-03-16T15:32:19.488Z,1.80
2023-03-16T15:34:46.635Z,1.35
2023-03-16T15:37:18.860Z,1.60
2023-03-16T15:39:46.796Z,1.33
2023-03-16T15:42:16.703Z,1.33
2023-03-16T15:44:43.985Z,1.45
2023-03-16T15:47:10.940Z,1.30
2023-03-16T15:49:47.271Z,1.58
2023-03-16T15:52:32.501Z,1.10
2023-03-16T15:55:04.381Z,1.30
2023-03-16T15:57:31.995Z,2.03
2023-03-16T15:59:59.232Z,1.70
2023-03-16T16:02:34.828Z,1.10
2023-03-16T16:05:01.444Z,1.50
2023-03-16T16:07:28.158Z,1.25
2023-03-16T16:09:54.652Z,1.10
2023-03-16T16:12:26.859Z,1.23
2023-03-16T16:14:54.678Z,1.15
2023-03-16T16:17:36.600Z,1.13
2023-03-16T16:20:29.005Z,1.25
2023-03-16T16:22:59.946Z,1.50
2023-03-16T16:25:32.834Z,1.85
2023-03-16T16:27:59.783Z,1.50
2023-03-16T16:30:29.226Z,1.48
2023-03-16T16:32:58.698Z,1.40
2023-03-16T16:35:27.943Z,1.50
2023-03-16T16:37:54.552Z,1.30
2023-03-16T16:40:32.991Z,1.40
2023-03-16T16:43:04.709Z,1.25
2023-03-16T16:47:59.225Z,1.20
2023-03-16T16:50:27.492Z,1.00
2023-03-16T16:52:55.318Z,1.10
2023-03-16T16:55:23.210Z,1.45
2023-03-16T16:57:53.764Z,1.00
2023-03-16T17:00:25.734Z,1.13
2023-03-16T17:02:55.779Z,1.50
2023-03-16T17:05:25.658Z,1.23
2023-03-16T17:07:52.743Z,1.08
2023-03-16T17:10:22.743Z,1.20
2023-03-16T17:12:50.649Z,0.95
2023-03-16T17:15:30.383Z,1.20
2023-03-16T17:18:11.617Z,1.27
2023-03-16T17:20:38.805Z,4.23
2023-03-16T17:23:25.543Z,1.50
2023-03-16T17:25:53.802Z,1.20
2023-03-16T17:28:20.738Z,1.65
2023-03-16T17:30:50.814Z,1.90
2023-03-16T17:33:19.303Z,1.45
2023-03-16T17:35:47.690Z,1.50
2023-03-16T17:38:20.444Z,1.77
2023-03-16T17:40:47.444Z,1.40
2023-03-16T17:43:16.336Z,1.48
2023-03-16T17:45:44.587Z,1.55
2023-03-16T17:48:14.155Z,1.20
2023-03-16T17:50:41.493Z,1.70
2023-03-16T17:53:08.177Z,1.80
2023-03-16T17:55:35.091Z,1.42
2023-03-16T17:58:01.662Z,1.52
2023-03-16T18:00:34.791Z,1.73
2023-03-16T18:03:12.159Z,1.73
2023-03-16T18:05:38.942Z,1.55
2023-03-16T18:08:29.079Z,1.50
2023-03-16T18:11:01.874Z,1.90
2023-03-16T18:13:37.268Z,1.58
2023-03-16T18:16:05.802Z,1.70
2023-03-16T18:18:36.486Z,1.60
2023-03-16T18:21:04.237Z,1.20
2023-03-16T18:23:35.036Z,1.50
2023-03-16T18:26:03.967Z,1.70
2023-03-16T18:28:31.842Z,1.90
2023-03-16T18:30:59.113Z,1.83
2023-03-16T18:33:35.306Z,2.10
2023-03-16T18:36:07.836Z,2.10
2023-03-16T18:38:38.299Z,2.10
2023-03-16T18:41:18.060Z,2.08
2023-03-16T18:43:44.646Z,2.08
2023-03-16T18:46:23.798Z,2.60
2023-03-16T18:48:52.436Z,2.28
2023-03-16T18:51:19.316Z,2.42
2023-03-16T18:53:46.772Z,2.97
2023-03-16T18:56:25.528Z,2.33
2023-03-16T18:58:53.263Z,2.80
2023-03-16T19:01:27.742Z,2.72
2023-03-16T19:03:55.751Z,2.67
2023-03-16T19:06:29.584Z,9.25
2023-03-16T19:09:12.488Z,4.03
2023-03-16T19:11:43.372Z,4.10
2023-03-16T19:14:19.204Z,3.88
2023-03-16T19:16:46.651Z,4.50
2023-03-16T19:19:15.071Z,11.85
2023-03-16T19:21:42.689Z,5.60
2023-03-16T19:24:22.689Z,3.22
2023-03-16T19:26:49.405Z,2.95
2023-03-16T19:29:16.146Z,4.78
2023-03-16T19:31:42.728Z,5.30
2023-03-16T19:34:19.458Z,6.65
2023-03-16T19:36:46.061Z,3.55
2023-03-16T19:39:14.105Z,3.00
2023-03-16T19:41:41.134Z,11.35
2023-03-16T19:44:16.860Z,7.85
2023-03-16T19:46:45.728Z,16.05
2023-03-16T19:49:23.820Z,5.15
2023-03-16T19:51:52.359Z,15.50
2023-03-16T19:54:24.775Z,12.20
2023-03-16T19:56:53.260Z,10.02
2023-03-16T19:59:20.625Z,8.18
2023-03-16T20:01:48.038Z,8.57
2023-03-16T20:04:23.223Z,14.68
2023-03-16T20:06:50.919Z,13.57
2023-03-16T20:09:17.981Z,5.47
2023-03-16T20:11:45.473Z,21.17
2023-03-16T20:14:29.061Z,4.78
2023-03-16T20:16:55.932Z,4.53
2023-03-16T20:19:23.208Z,8.20
2023-03-16T20:21:49.897Z,5.82
2023-03-16T20:24:19.105Z,5.10
2023-03-16T20:26:47.797Z,4.65
2023-03-16T20:29:32.005Z,4.20
2023-03-16T20:31:59.634Z,4.28
2023-03-16T20:34:29.222Z,3.35
2023-03-16T20:36:56.758Z,3.58
2023-03-16T20:39:23.874Z,4.18
2023-03-16T20:41:51.259Z,4.05
2023-03-16T20:44:19.699Z,3.45
2023-03-16T20:46:46.918Z,3.63
2023-03-16T20:49:22.661Z,5.00
2023-03-16T20:51:52.271Z,3.97
2023-03-16T20:54:19.123Z,5.88
2023-03-16T20:56:45.710Z,5.03
2023-03-16T20:59:23.839Z,4.50
2023-03-16T21:01:54.550Z,4.85
2023-03-16T21:04:27.525Z,5.63
2023-03-16T21:06:55.717Z,4.20
2023-03-16T21:09:22.426Z,6.38
2023-03-16T21:11:49.528Z,6.18
2023-03-16T21:14:23.841Z,4.40
2023-03-16T21:16:52.371Z,5.90
2023-03-16T21:19:22.611Z,7.95
2023-03-16T21:21:49.392Z,5.20
2023-03-16T21:24:16.086Z,5.40
2023-03-16T21:26:44.006Z,7.25
2023-03-16T21:29:21.859Z,6.00
2023-03-16T21:31:48.801Z,7.70
2023-03-16T21:34:24.004Z,6.40
2023-03-16T21:36:51.246Z,6.35
2023-03-16T21:39:22.209Z,3.88
2023-03-16T21:41:50.546Z,4.18
2023-03-16T21:44:17.317Z,3.95
2023-03-16T21:46:44.062Z,4.47
2023-03-16T21:49:12.113Z,4.20
2023-03-16T21:51:40.133Z,4.05
2023-03-16T21:54:12.298Z,3.80
2023-03-16T21:56:38.931Z,3.78
2023-03-16T21:59:05.765Z,3.65
2023-03-16T22:01:33.540Z,3.40
2023-03-16T22:04:08.989Z,3.45
2023-03-16T22:06:36.567Z,3.58
2023-03-16T22:09:04.188Z,3.30
2023-03-16T22:11:31.322Z,3.20
2023-03-16T22:13:59.176Z,3.63
2023-03-16T22:16:29.975Z,3.30
2023-03-16T22:18:57.984Z,3.83
2023-03-16T22:21:30.296Z,3.50
2023-03-16T22:23:57.867Z,3.38
2023-03-16T22:26:24.805Z,2.88
2023-03-16T22:28:52.574Z,3.50
2023-03-16T22:31:38.688Z,3.53
2023-03-16T22:34:06.288Z,3.20
2023-03-16T22:36:34.015Z,3.42
2023-03-16T22:39:08.632Z,2.72
2023-03-16T22:41:35.154Z,2.78
2023-03-16T22:44:01.778Z,3.47
2023-03-16T22:46:29.546Z,3.35
2023-03-16T22:48:57.335Z,3.38
2023-03-16T22:51:26.621Z,2.95
2023-03-16T22:53:56.685Z,3.25
2023-03-16T22:56:24.254Z,2.97
2023-03-16T22:59:08.897Z,3.70
2023-03-16T23:01:39.532Z,3.47
2023-03-16T23:04:14.561Z,3.13
2023-03-16T23:06:41.887Z,3.05
2023-03-16T23:09:12.632Z,3.50
2023-03-16T23:11:39.700Z,2.97
2023-03-16T23:14:18.111Z,3.88
2023-03-16T23:16:46.050Z,3.92
2023-03-16T23:19:29.649Z,3.53
2023-03-16T23:21:59.904Z,4.05
2023-03-16T23:24:26.460Z,3.70
2023-03-16T23:26:53.924Z,3.83
2023-03-16T23:29:21.652Z,3.22
2023-03-16T23:31:48.311Z,3.13
2023-03-16T23:34:18.027Z,3.25
2023-03-16T23:36:44.936Z,3.50
2023-03-16T23:39:12.190Z,4.05
2023-03-16T23:41:41.283Z,3.35
2023-03-16T23:44:08.769Z,3.25
2023-03-16T23:46:35.479Z,3.15
2023-03-16T23:49:04.272Z,3.65
2023-03-16T23:51:36.095Z,3.97
2023-03-16T23:54:13.853Z,3.75
2023-03-16T23:56:40.831Z,2.90
2023-03-16T23:59:07.303Z,3.65
